Flight Track Log - Related Links

Times and Time Zones

All times are in EDT time to prevent confusion due to time zone crossing. See the DAL3672 flight status page for this flight to view local times or setup timezone preferences in your user account.


Time Position Orientation Groundspeed Altitude Reporting Facility
EDT Latitude Longitude Course Direction KTS MPH feet Rate Location/Type
Tue 12:26:25 PM 42.9803 -71.5178 313° West 257 296 4,500  Level Boston Center
Tue 12:27:00 PM 42.9374 -71.7865 279° West  Level FlightAware Approximate
Tue 12:27:26 PM 43.0556 -71.5422 347° North 267 307 7,100  Level Boston Center
Tue 12:28:00 PM 42.9500 -71.9041 270° West  Level FlightAware Approximate
Tue 12:28:26 PM 43.1244 -71.5867 335° Northwest 274 315 10,100  Level Boston Center
Tue 12:29:00 PM 42.9500 -72.0229 270° West  Level FlightAware Approximate
Tue 12:29:27 PM 43.1439 -71.6861 285° West 245 282 11,600  Level Boston Center
Tue 12:30:00 PM 42.9501 -72.1419 270° West  Level FlightAware Approximate
Tue 12:30:27 PM 43.1447 -71.8056 271° West 297 342 13,500  Level Boston Center
Tue 12:31:28 PM 43.1494 -71.9250 273° West 312 359 15,200 1,881 Climbing Boston Center
Tue 12:32:25 PM 43.1519 -72.0503 272° West 323 372 17,200 1,678 Climbing Boston Center
Tue 12:33:26 PM 43.1544 -72.1756 272° West 329 379 18,500 1,438 Climbing Boston Center
Tue 12:34:26 PM 43.1569 -72.3006 272° West 329 379 20,100 1,537 Climbing Boston Center
Tue 12:35:27 PM 43.1589 -72.4231 271° West 329 379 21,600 1,180 Climbing Boston Center
Tue 12:36:28 PM 43.1611 -72.5511 271° West 329 379 22,500 864 Climbing Boston Center
Tue 12:37:25 PM 43.1650 -72.6878 272° West 341 392 23,300 738 Climbing Boston Center
Tue 12:38:38 PM 43.1667 -72.8272 271° West 356 410 24,100 767 Climbing Boston Center
Tue 12:39:38 PM 43.1681 -72.9922 271° West 368 423 25,000 843 Climbing Boston Center
Tue 12:40:39 PM 43.1714 -73.1347 272° West 368 423 25,800 787 Climbing Boston Center
Tue 12:41:40 PM 43.1725 -73.2800 271° West 368 423 26,600 738 Climbing Boston Center
Tue 12:42:49 PM 43.1694 -73.4081 268° West 368 423 27,400 824 Climbing Boston Center
Tue 12:43:51 PM 43.1722 -73.5731 271° West 368 423 28,400 836 Climbing Boston Center
Tue 12:44:51 PM 43.1728 -73.7128 270° West 368 423 29,100 610 Climbing Boston Center
Tue 12:45:49 PM 43.1733 -73.8464 270° West 363 418 29,600 450 Climbing Boston Center
Tue 12:46:51 PM 43.1714 -73.9858 269° West 363 418 30,000 197 Climbing Boston Center
Tue 12:47:51 PM 43.1736 -74.1283 271° West 363 418 30,000  Level Boston Center
Tue 12:48:52 PM 43.1733 -74.2736 270° West 374 430 30,000  Level Boston Center
Tue 12:49:49 PM 43.1753 -74.4189 271° West 379 436 30,000  Level Boston Center
Tue 12:50:50 PM 43.1747 -74.5611 270° West 384 442 30,000  Level Boston Center
Tue 12:51:50 PM 43.1747 -74.6750 270° West 384 442 30,000  Level Boston Center
Tue 12:52:50 PM 43.1753 -74.8458 270° West 384 442 30,000  Level Boston Center
Tue 12:53:51 PM 43.1742 -74.9911 269° West 384 442 30,000  Level Boston Center
Tue 12:54:50 PM 43.1731 -75.1364 269° West 384 442 30,000  Level Boston Center
Tue 12:55:51 PM 43.1717 -75.2814 269° West 384 442 30,000  Level Boston Center
Tue 12:56:51 PM 43.1700 -75.4267 269° West 384 442 30,000  Level Boston Center
Tue 12:57:51 PM 43.1700 -75.5747 270° West 384 442 30,000  Level Boston Center
Tue 12:58:49 PM 43.1681 -75.7197 269° West 384 442 30,000  Level Boston Center
Tue 12:59:50 PM 43.1656 -75.8761 269° West 384 442 30,000  Level Boston Center
Tue 01:02:15 PM 43.1594 -76.2167 269° West 389 448 30,000  Level Cleveland Center
Tue 01:03:15 PM 43.1481 -76.3600 264° West 389 448 30,000  Level Cleveland Center
Tue 01:04:15 PM 43.1367 -76.5058 264° West 389 448 30,000  Level Cleveland Center
Tue 01:05:15 PM 43.1231 -76.6547 263° West 389 448 30,000  Level Cleveland Center
Tue 01:06:15 PM 43.1075 -76.8122 262° West 389 448 30,000  Level Cleveland Center
Tue 01:07:15 PM 43.0933 -76.9639 263° West 395 455 30,000  Level Cleveland Center
Tue 01:08:15 PM 43.0814 -77.1094 264° West 395 455 30,000  Level Cleveland Center
Tue 01:09:15 PM 43.0689 -77.2550 263° West 395 455 30,000  Level Cleveland Center
Tue 01:10:15 PM 43.0564 -77.4008 263° West 390 449 30,000  Level Cleveland Center
Tue 01:11:15 PM 43.0394 -77.5494 261° West 390 449 30,000  Level Cleveland Center
Tue 01:12:15 PM 43.0264 -77.6950 263° West 390 449 30,000  Level Cleveland Center
Tue 01:13:15 PM 43.0131 -77.8261 262° West 390 449 30,000  Level Cleveland Center
Tue 01:14:15 PM 42.9997 -77.9686 263° West 390 449 30,000  Level Cleveland Center
Tue 01:15:15 PM 42.9842 -78.1142 262° West 390 449 30,000  Level Cleveland Center
Tue 01:16:15 PM 42.9703 -78.2567 262° West 390 449 30,000  Level Cleveland Center
Tue 01:17:15 PM 42.9564 -78.3989 262° West 390 449 30,000  Level Cleveland Center
Tue 01:18:15 PM 42.9403 -78.5414 261° West 390 449 30,000  Level Cleveland Center
Tue 01:19:15 PM 42.9239 -78.6836 261° West 390 449 30,000  Level Cleveland Center
Tue 01:20:15 PM 42.9053 -78.8258 260° West 390 449 30,000  Level Cleveland Center
Tue 01:21:15 PM 42.8844 -78.9625 258° West 385 443 30,000  Level Cleveland Center
Tue 01:22:15 PM 42.8633 -79.1047 259° West 385 443 30,000  Level Cleveland Center
Tue 01:23:15 PM 42.8442 -79.2439 259° West 385 443 30,000  Level Cleveland Center
Tue 01:24:15 PM 42.8250 -79.3831 259° West 380 437 30,000  Level Cleveland Center
Tue 01:25:15 PM 42.8056 -79.5247 259° West 380 437 30,000  Level Cleveland Center
Tue 01:26:15 PM 42.7839 -79.6667 258° West 380 437 30,000  Level Cleveland Center
Tue 01:27:15 PM 42.7597 -79.8028 256° West 375 432 30,000  Level Cleveland Center
Tue 01:28:15 PM 42.7481 -79.9472 264° West 375 432 30,000 -300 Level Cleveland Center
Tue 01:29:15 PM 42.7406 -80.0914 266° West 381 438 29,400 -850 Descending Cleveland Center
Tue 01:30:15 PM 42.7347 -80.2328 267° West 381 438 28,300 -700 Descending Cleveland Center
Tue 01:31:15 PM 42.7308 -80.3683 268° West 376 433 28,000 -150 Descending Cleveland Center
Tue 01:32:15 PM 42.7250 -80.5183 267° West 370 426 28,000 -300 Level Cleveland Center
Tue 01:33:15 PM 42.7164 -80.6539 265° West 365 420 27,400 -1,700 Descending Cleveland Center
Tue 01:34:15 PM 42.7122 -80.7867 268° West 358 412 24,600 -1,700 Descending Cleveland Center
Tue 01:35:15 PM 42.7036 -80.9108 265° West 347 399 24,000 -300 Descending Cleveland Center
Tue 01:36:15 PM 42.6906 -81.0408 262° West 347 399 24,000  Level Cleveland Center
Tue 01:37:15 PM 42.6756 -81.1706 261° West 352 405 24,000  Level Cleveland Center
Tue 01:38:16 PM 42.6600 -81.3003 261° West 352 405 24,000  Level Cleveland Center
Tue 01:39:15 PM 42.6467 -81.4272 262° West 348 400 24,000  Level Cleveland Center
Tue 01:40:15 PM 42.6292 -81.5594 260° West 348 400 24,000  Level Cleveland Center
Tue 01:41:15 PM 42.6133 -81.6864 260° West 348 400 24,000 -650 Level Cleveland Center
Tue 01:42:15 PM 42.5975 -81.8131 260° West 354 407 22,700 -1,550 Descending Cleveland Center
Tue 01:43:15 PM 42.5814 -81.9339 260° West 348 400 20,900 -1,850 Descending Cleveland Center
Tue 01:44:15 PM 42.5675 -82.0547 261° West 337 388 19,000 -1,850 Descending Cleveland Center
Tue 01:45:15 PM 42.5533 -82.1728 261° West 332 382 17,200 -1,800 Descending Cleveland Center
Tue 01:46:15 PM 42.5392 -82.2908 261° West 332 382 15,400 -1,782 Descending Cleveland Center
Tue 01:46:56 PM 42.5317 -82.3722 263° West 306 352 14,200 -1,700 Descending Cleveland Center
Tue 01:47:15 PM 42.5250 -82.4003 252° West 327 376 13,700 -1,574 Descending Cleveland Center
Tue 01:47:57 PM 42.5175 -82.4789 263° West 293 337 12,600 -1,600 Descending Cleveland Center
Tue 01:48:15 PM 42.5108 -82.5125 255° West 315 362 12,100 -1,300 Descending Cleveland Center
Tue 01:48:57 PM 42.4950 -82.5825 253° West 287 330 11,300 -1,300 Descending Cleveland Center
Tue 01:49:15 PM 42.4861 -82.6103 247° West 297 342 10,800 -1,377 Descending Cleveland Center
Tue 01:49:58 PM 42.4619 -82.6714 242° Southwest 243 280 9,900 -1,200 Descending Cleveland Center
Tue 01:50:15 PM 42.4472 -82.6878 219° Southwest 269 310 9,600 -885 Descending Cleveland Center
Tue 01:50:59 PM 42.4169 -82.7403 232° Southwest 236 272 9,000 -700 Descending Cleveland Center
Tue 01:51:15 PM 42.4125 -82.7628 255° West 251 289 8,900 -1,082 Descending Cleveland Center
Tue 01:52:00 PM 42.4092 -82.8300 266° West 230 265 7,900 -1,200 Descending Cleveland Center
Tue 01:52:15 PM 42.4044 -82.8469 249° West 237 273 7,700 -720 Descending Cleveland Center
Tue 01:53:15 PM 42.3986 -82.9308 265° West 230 265 7,000 -393 Descending Cleveland Center
Tue 01:54:02 PM 42.4103 -82.9819 287° West 194 223 7,000 -278 Level Cleveland Center
Tue 01:55:03 PM 42.4253 -83.0558 285° West 192 221 6,500 -984 Descending Cleveland Center
Tue 01:56:04 PM 42.4214 -83.1317 266° West 205 236 5,000 -1,149 Descending Cleveland Center
Tue 01:56:37 PM 42.4058 -83.1661 239° Southwest 203 234 4,700 -346 Descending FAA TRACON SMA TRACON (SMA)
Tue 01:56:56 PM 42.3975 -83.1833 237° Southwest 177 204 4,700 -154 Level FAA TRACON SMA TRACON (SMA)
Tue 01:57:16 PM 42.3881 -83.2025 236° Southwest 166 191 4,600 -439 Descending FAA TRACON SMA TRACON (SMA)
Tue 01:57:37 PM 42.3789 -83.2153 226° Southwest 176 203 4,400 -900 Descending FAA TRACON SMA TRACON (SMA)
Tue 01:57:56 PM 42.3636 -83.2269 209° Southwest 181 208 4,000 -1,200 Descending FAA TRACON SMA TRACON (SMA)
Tue 01:58:17 PM 42.3478 -83.2392 210° Southwest 177 204 3,600 -1,050 Descending FAA TRACON SMA TRACON (SMA)
Tue 01:58:36 PM 42.3347 -83.2492 210° Southwest 181 208 3,300 -1,077 Descending FAA TRACON SMA TRACON (SMA)
Tue 01:58:56 PM 42.3189 -83.2608 209° Southwest 188 216 2,900 -1,024 Descending FAA TRACON SMA TRACON (SMA)
Tue 01:59:17 PM 42.3028 -83.2731 209° Southwest 185 213 2,600 -857 Descending FAA TRACON SMA TRACON (SMA)

Login

Don't have an account? Register now (free) for customized features, flight alerts, and more!